createdAt,value
2018-10-21T00:00:32.573Z,19.5
2018-10-21T00:01:32.770Z,19.52
2018-10-21T00:02:32.437Z,19.49
2018-10-21T00:03:32.445Z,19.47
2018-10-21T00:04:32.640Z,19.47
2018-10-21T00:05:32.481Z,19.5
2018-10-21T00:06:32.802Z,19.5
2018-10-21T00:07:32.825Z,19.49
2018-10-21T00:08:32.434Z,19.49
2018-10-21T00:09:32.487Z,19.45
2018-10-21T00:10:32.547Z,19.47
2018-10-21T00:11:32.845Z,19.46
2018-10-21T00:12:32.543Z,19.46
2018-10-21T00:13:32.788Z,19.45
2018-10-21T00:14:32.453Z,19.46
2018-10-21T00:15:35.149Z,19.45
2018-10-21T00:16:32.481Z,19.46
2018-10-21T00:17:32.692Z,19.46
2018-10-21T00:18:32.536Z,19.5
2018-10-21T00:19:32.362Z,19.47
2018-10-21T00:20:32.487Z,19.47
2018-10-21T00:21:32.335Z,19.46
2018-10-21T00:22:32.808Z,19.45
2018-10-21T00:23:32.610Z,19.46
2018-10-21T00:24:32.858Z,19.43
2018-10-21T00:25:32.405Z,19.47
2018-10-21T00:26:32.358Z,19.45
2018-10-21T00:27:32.733Z,19.46
2018-10-21T00:28:33.001Z,19.45
2018-10-21T00:29:32.359Z,19.46
2018-10-21T00:30:32.589Z,19.46
2018-10-21T00:31:32.986Z,19.47
2018-10-21T00:32:32.990Z,19.46
2018-10-21T00:33:32.452Z,19.46
2018-10-21T00:34:32.469Z,19.46
2018-10-21T00:35:32.738Z,19.45
2018-10-21T00:36:32.765Z,19.45
2018-10-21T00:37:32.560Z,19.43
2018-10-21T00:38:32.418Z,19.43
2018-10-21T00:39:32.588Z,19.42
2018-10-21T00:40:32.508Z,19.4
2018-10-21T00:41:32.337Z,19.45
2018-10-21T00:42:32.813Z,19.45
2018-10-21T00:43:32.400Z,19.45
2018-10-21T00:44:32.467Z,19.45
2018-10-21T00:45:33.139Z,19.45
2018-10-21T00:46:32.475Z,19.47
2018-10-21T00:47:32.433Z,19.43
2018-10-21T00:48:32.624Z,19.46
2018-10-21T00:49:33.087Z,19.42
2018-10-21T00:50:32.415Z,19.43
2018-10-21T00:51:32.675Z,19.45
2018-10-21T00:52:32.431Z,19.43
2018-10-21T00:53:32.362Z,19.45
2018-10-21T00:54:32.321Z,19.43
2018-10-21T00:55:32.472Z,19.43
2018-10-21T00:56:32.514Z,19.4
2018-10-21T00:57:32.388Z,19.42
2018-10-21T00:58:32.462Z,19.43
2018-10-21T00:59:32.355Z,19.42
2018-10-21T01:00:32.346Z,19.4
2018-10-21T01:01:32.286Z,19.42
2018-10-21T01:02:32.523Z,19.42
2018-10-21T01:03:32.388Z,19.42
2018-10-21T01:04:32.235Z,19.39
2018-10-21T01:05:32.325Z,19.39
2018-10-21T01:06:32.616Z,19.39
2018-10-21T01:07:32.496Z,19.37
2018-10-21T01:08:32.787Z,19.4
2018-10-21T01:09:32.801Z,19.4
2018-10-21T01:10:32.909Z,19.39
2018-10-21T01:11:32.372Z,19.37
2018-10-21T01:12:32.438Z,19.39
2018-10-21T01:13:32.583Z,19.39
2018-10-21T01:14:32.801Z,19.4
2018-10-21T01:15:32.875Z,19.39
2018-10-21T01:16:33.020Z,19.37
2018-10-21T01:17:32.437Z,19.39
2018-10-21T01:18:32.465Z,19.37
2018-10-21T01:19:32.395Z,19.4
2018-10-21T01:20:32.723Z,19.37
2018-10-21T01:21:32.515Z,19.37
2018-10-21T01:22:32.328Z,19.39
2018-10-21T01:23:32.754Z,19.39
2018-10-21T01:24:32.493Z,19.4
2018-10-21T01:25:32.650Z,19.37
2018-10-21T01:26:32.481Z,19.39
2018-10-21T01:27:32.692Z,19.37
2018-10-21T01:28:32.603Z,19.37
2018-10-21T01:29:32.447Z,19.36
2018-10-21T01:30:32.445Z,19.39
2018-10-21T01:31:32.567Z,19.39
2018-10-21T01:32:32.797Z,19.4
2018-10-21T01:33:32.894Z,19.4
2018-10-21T01:34:32.273Z,19.42
2018-10-21T01:35:32.352Z,19.39
2018-10-21T01:36:34.803Z,19.37
2018-10-21T01:37:32.463Z,19.39
2018-10-21T01:38:32.545Z,19.37
2018-10-21T01:39:32.486Z,19.39
2018-10-21T01:40:32.371Z,19.37
2018-10-21T01:41:32.517Z,19.37
2018-10-21T01:42:32.630Z,19.37
2018-10-21T01:43:32.594Z,19.39
2018-10-21T01:44:32.519Z,19.35
2018-10-21T01:45:32.510Z,19.36
2018-10-21T01:46:32.471Z,19.35
2018-10-21T01:47:32.429Z,19.39
2018-10-21T01:48:32.386Z,19.36
2018-10-21T01:49:32.449Z,19.39
2018-10-21T01:50:32.550Z,19.4
2018-10-21T01:51:32.320Z,19.35
2018-10-21T01:52:32.846Z,19.36
2018-10-21T01:53:32.844Z,19.35
2018-10-21T01:54:32.628Z,19.36
2018-10-21T01:55:32.524Z,19.36
2018-10-21T01:56:32.527Z,19.36
2018-10-21T01:57:32.346Z,19.36
2018-10-21T01:58:32.521Z,19.36
2018-10-21T01:59:32.536Z,19.35
2018-10-21T02:00:32.790Z,19.37
2018-10-21T02:01:32.288Z,19.36
2018-10-21T02:02:32.635Z,19.37
2018-10-21T02:03:32.942Z,19.35
2018-10-21T02:04:32.421Z,19.35
2018-10-21T02:05:32.534Z,19.35
2018-10-21T02:06:32.316Z,19.35
2018-10-21T02:07:32.779Z,19.32
2018-10-21T02:08:32.464Z,19.35
2018-10-21T02:09:32.346Z,19.35
2018-10-21T02:10:32.493Z,19.33
2018-10-21T02:11:32.436Z,19.32
2018-10-21T02:12:32.536Z,19.35
2018-10-21T02:13:32.442Z,19.33
2018-10-21T02:14:32.324Z,19.32
2018-10-21T02:15:32.351Z,19.32
2018-10-21T02:16:32.811Z,19.33
2018-10-21T02:17:32.821Z,19.32
2018-10-21T02:18:33.021Z,19.33
2018-10-21T02:19:32.465Z,19.32
2018-10-21T02:20:32.425Z,19.33
2018-10-21T02:21:32.498Z,19.32
2018-10-21T02:22:32.384Z,19.33
2018-10-21T02:23:32.494Z,19.35
2018-10-21T02:24:32.538Z,19.32
2018-10-21T02:25:32.391Z,19.33
2018-10-21T02:26:33.087Z,19.32
2018-10-21T02:27:32.959Z,19.32
2018-10-21T02:28:32.364Z,19.33
2018-10-21T02:29:32.306Z,19.33
2018-10-21T02:30:32.598Z,19.33
2018-10-21T02:31:32.838Z,19.33
2018-10-21T02:32:32.525Z,19.33
2018-10-21T02:33:34.613Z,19.35
2018-10-21T02:34:32.345Z,19.32
2018-10-21T02:35:32.389Z,19.35
2018-10-21T02:36:32.303Z,19.3
2018-10-21T02:37:32.276Z,19.3
2018-10-21T02:38:32.467Z,19.32
2018-10-21T02:39:32.503Z,19.33
2018-10-21T02:40:32.657Z,19.29
2018-10-21T02:41:32.423Z,19.32
2018-10-21T02:42:32.502Z,19.3
2018-10-21T02:43:32.807Z,19.32
2018-10-21T02:44:32.310Z,19.33
2018-10-21T02:45:32.426Z,19.3
2018-10-21T02:46:32.454Z,19.3
2018-10-21T02:47:32.282Z,19.3
2018-10-21T02:48:32.398Z,19.3
2018-10-21T02:49:32.744Z,19.3
2018-10-21T02:50:32.746Z,19.32
2018-10-21T02:51:33.024Z,19.33
2018-10-21T02:52:32.489Z,19.29
2018-10-21T02:53:32.843Z,19.32
2018-10-21T02:54:32.416Z,19.3
2018-10-21T02:55:32.367Z,19.32
2018-10-21T02:56:32.535Z,19.32
2018-10-21T02:57:32.962Z,19.3
2018-10-21T02:58:32.391Z,19.29
2018-10-21T02:59:32.421Z,19.3
2018-10-21T03:00:32.792Z,19.3
2018-10-21T03:01:32.533Z,19.32
2018-10-21T03:02:32.297Z,19.3
2018-10-21T03:03:32.469Z,19.3
2018-10-21T03:04:32.513Z,19.32
2018-10-21T03:05:32.426Z,19.3
2018-10-21T03:06:32.729Z,19.3
2018-10-21T03:07:32.353Z,19.3
2018-10-21T03:08:32.334Z,19.27
2018-10-21T03:09:32.386Z,19.3
2018-10-21T03:10:32.884Z,19.29
2018-10-21T03:11:32.356Z,19.29
2018-10-21T03:12:32.432Z,19.27
2018-10-21T03:13:32.469Z,19.26
2018-10-21T03:14:32.422Z,19.27
2018-10-21T03:15:32.326Z,19.27
2018-10-21T03:16:32.437Z,19.27
2018-10-21T03:17:32.670Z,19.27
2018-10-21T03:18:32.631Z,19.27
2018-10-21T03:19:32.651Z,19.29
2018-10-21T03:20:32.604Z,19.29
2018-10-21T03:21:32.550Z,19.29
2018-10-21T03:22:32.413Z,19.29
2018-10-21T03:23:32.725Z,19.26
2018-10-21T03:24:32.604Z,19.27
2018-10-21T03:25:32.347Z,19.27
2018-10-21T03:26:32.521Z,19.26
2018-10-21T03:27:32.351Z,19.27
2018-10-21T03:28:32.399Z,19.29
2018-10-21T03:29:32.611Z,19.27
2018-10-21T03:30:32.353Z,19.27
2018-10-21T03:31:32.693Z,19.25
2018-10-21T03:32:32.431Z,19.25
2018-10-21T03:33:34.036Z,19.23
2018-10-21T03:34:33.061Z,19.26
2018-10-21T03:35:32.811Z,19.25
2018-10-21T03:36:32.391Z,19.26
2018-10-21T03:37:32.774Z,19.26
2018-10-21T03:38:32.752Z,19.25
2018-10-21T03:39:32.481Z,19.23
2018-10-21T03:40:32.394Z,19.26
2018-10-21T03:41:32.319Z,19.27
2018-10-21T03:42:32.447Z,19.25
2018-10-21T03:43:32.319Z,19.25
2018-10-21T03:44:32.411Z,19.25
2018-10-21T03:45:32.406Z,19.25
2018-10-21T03:46:32.340Z,19.23
2018-10-21T03:47:32.299Z,19.26
2018-10-21T03:48:32.563Z,19.26
2018-10-21T03:49:32.308Z,19.22
2018-10-21T03:50:32.492Z,19.26
2018-10-21T03:51:32.352Z,19.23
2018-10-21T03:52:32.300Z,19.23
2018-10-21T03:53:32.470Z,19.26
2018-10-21T03:54:32.287Z,19.2
2018-10-21T03:55:32.220Z,19.23
2018-10-21T03:56:32.238Z,19.25
2018-10-21T03:57:32.403Z,19.26
2018-10-21T03:58:32.635Z,19.29
2018-10-21T03:59:32.461Z,19.29
2018-10-21T04:00:32.408Z,19.27
2018-10-21T04:01:32.352Z,19.27
2018-10-21T04:02:32.407Z,19.29
2018-10-21T04:03:32.831Z,19.27
2018-10-21T04:04:32.438Z,19.29
2018-10-21T04:05:32.303Z,19.3
2018-10-21T04:06:32.444Z,19.32
2018-10-21T04:07:32.305Z,19.32
2018-10-21T04:08:32.454Z,19.36
2018-10-21T04:09:32.351Z,19.35
2018-10-21T04:10:32.234Z,19.35
2018-10-21T04:11:32.355Z,19.3
2018-10-21T04:12:32.350Z,19.33
2018-10-21T04:13:32.566Z,19.33
2018-10-21T04:14:32.666Z,19.35
2018-10-21T04:15:32.488Z,19.35
2018-10-21T04:16:32.496Z,19.37
2018-10-21T04:17:32.387Z,19.37
2018-10-21T04:18:32.356Z,19.42
2018-10-21T04:19:32.404Z,19.43
2018-10-21T04:20:32.617Z,19.43
2018-10-21T04:21:32.518Z,19.45
2018-10-21T04:22:32.479Z,19.45
2018-10-21T04:23:32.343Z,19.47
2018-10-21T04:24:32.661Z,19.5
2018-10-21T04:25:32.399Z,19.52
2018-10-21T04:26:32.490Z,19.52
2018-10-21T04:27:32.438Z,19.57
2018-10-21T04:28:32.305Z,19.56
2018-10-21T04:29:32.539Z,19.56
2018-10-21T04:30:32.783Z,19.61
2018-10-21T04:31:32.498Z,19.63
2018-10-21T04:32:32.245Z,19.63
2018-10-21T04:33:32.461Z,19.65
2018-10-21T04:34:32.610Z,19.65
2018-10-21T04:35:33.716Z,19.67
2018-10-21T04:36:32.487Z,19.71
2018-10-21T04:37:32.326Z,19.73
2018-10-21T04:38:32.404Z,19.74
2018-10-21T04:39:32.237Z,19.75
2018-10-21T04:40:32.200Z,19.75
2018-10-21T04:41:32.357Z,19.77
2018-10-21T04:42:32.364Z,19.81
2018-10-21T04:43:32.836Z,19.8
2018-10-21T04:44:32.356Z,19.84
2018-10-21T04:45:32.369Z,19.84
2018-10-21T04:46:33.454Z,19.84
2018-10-21T04:47:32.503Z,19.86
2018-10-21T04:48:32.466Z,19.88
2018-10-21T04:49:32.807Z,19.88
2018-10-21T04:50:32.411Z,19.92
2018-10-21T04:51:32.442Z,19.93
2018-10-21T04:52:32.472Z,19.91
2018-10-21T04:53:32.449Z,19.96
2018-10-21T04:54:32.582Z,19.96
2018-10-21T04:55:32.536Z,19.99
2018-10-21T04:56:32.390Z,20.01
2018-10-21T04:57:32.407Z,20.01
2018-10-21T04:58:32.483Z,20.04
2018-10-21T04:59:32.295Z,20.05
2018-10-21T05:00:32.808Z,20.05
2018-10-21T05:01:32.289Z,20.05
2018-10-21T05:02:32.308Z,20.07
2018-10-21T05:03:32.447Z,20.08
2018-10-21T05:04:32.698Z,20.09
2018-10-21T05:05:32.506Z,20.09
2018-10-21T05:06:32.245Z,20.09
2018-10-21T05:07:33.196Z,20.11
2018-10-21T05:08:32.265Z,20.11
2018-10-21T05:09:32.327Z,20.12
2018-10-21T05:10:32.353Z,20.15
2018-10-21T05:11:32.649Z,20.16
2018-10-21T05:12:32.355Z,20.15
2018-10-21T05:13:32.216Z,20.18
2018-10-21T05:14:32.574Z,20.16
2018-10-21T05:15:32.515Z,20.18
2018-10-21T05:16:33.085Z,20.18
2018-10-21T05:17:32.208Z,20.19
2018-10-21T05:18:32.567Z,20.18
2018-10-21T05:19:32.403Z,20.2
2018-10-21T05:20:32.441Z,20.23
2018-10-21T05:21:32.674Z,20.22
2018-10-21T05:22:32.838Z,20.25
2018-10-21T05:23:32.235Z,20.26
2018-10-21T05:24:32.458Z,20.26
2018-10-21T05:25:32.860Z,20.26
2018-10-21T05:26:32.470Z,20.27
2018-10-21T05:27:32.377Z,20.27
2018-10-21T05:28:32.380Z,20.27
2018-10-21T05:29:32.646Z,20.3
2018-10-21T05:30:32.405Z,20.33
2018-10-21T05:31:32.442Z,20.33
2018-10-21T05:32:32.372Z,20.32
2018-10-21T05:33:32.340Z,20.35
2018-10-21T05:34:32.383Z,20.36
2018-10-21T05:35:32.371Z,20.37
2018-10-21T05:36:32.519Z,20.37
2018-10-21T05:37:32.292Z,20.37
2018-10-21T05:38:32.231Z,20.39
2018-10-21T05:39:32.295Z,20.4
2018-10-21T05:40:33.365Z,20.4
2018-10-21T05:41:32.255Z,20.39
2018-10-21T05:42:32.426Z,20.4
2018-10-21T05:43:32.374Z,20.4
2018-10-21T05:44:32.374Z,20.42
2018-10-21T05:45:32.312Z,20.4
2018-10-21T05:46:32.597Z,20.43
2018-10-21T05:47:32.396Z,20.42
2018-10-21T05:48:32.222Z,20.44
2018-10-21T05:49:32.409Z,20.46
2018-10-21T05:50:32.440Z,20.44
2018-10-21T05:51:32.257Z,20.44
2018-10-21T05:52:32.495Z,20.44
2018-10-21T05:53:32.605Z,20.46
2018-10-21T05:54:32.689Z,20.46
2018-10-21T05:55:32.584Z,20.5
2018-10-21T05:56:32.336Z,20.47
2018-10-21T05:57:32.342Z,20.47
2018-10-21T05:58:32.240Z,20.47
2018-10-21T05:59:32.396Z,20.5
2018-10-21T06:00:32.533Z,20.47
2018-10-21T06:01:32.376Z,20.5
2018-10-21T06:02:32.620Z,20.5
2018-10-21T06:03:32.356Z,20.48
2018-10-21T06:04:32.437Z,20.48
2018-10-21T06:05:32.520Z,20.48
2018-10-21T06:06:32.327Z,20.51
2018-10-21T06:07:32.299Z,20.53
2018-10-21T06:08:32.342Z,20.55
2018-10-21T06:09:32.474Z,20.54
2018-10-21T06:10:32.691Z,20.55
2018-10-21T06:11:32.223Z,20.55
2018-10-21T06:12:32.362Z,20.55
2018-10-21T06:13:32.375Z,20.54
2018-10-21T06:14:32.196Z,20.55
2018-10-21T06:15:32.144Z,20.55
2018-10-21T06:16:32.415Z,20.6
2018-10-21T06:17:32.600Z,20.59
2018-10-21T06:18:32.498Z,20.57
2018-10-21T06:19:32.362Z,20.57
2018-10-21T06:20:32.285Z,20.59
2018-10-21T06:21:32.200Z,20.59
2018-10-21T06:22:32.624Z,20.57
2018-10-21T06:23:32.955Z,20.57
2018-10-21T06:24:32.404Z,20.61
2018-10-21T06:25:32.361Z,20.57
2018-10-21T06:26:32.448Z,20.59
2018-10-21T06:27:32.979Z,20.59
2018-10-21T06:28:33.114Z,20.59
2018-10-21T06:29:32.428Z,20.6
2018-10-21T06:30:32.285Z,20.6
2018-10-21T06:31:32.462Z,20.59
2018-10-21T06:32:32.598Z,20.57
2018-10-21T06:33:32.940Z,20.59
2018-10-21T06:34:32.818Z,20.59
2018-10-21T06:35:32.947Z,20.55
2018-10-21T06:36:32.727Z,20.63
2018-10-21T06:37:32.397Z,20.59
2018-10-21T06:38:32.247Z,20.55
2018-10-21T06:39:32.289Z,20.55
2018-10-21T06:40:32.474Z,20.54
2018-10-21T06:41:32.898Z,20.55
2018-10-21T06:42:32.274Z,20.57
2018-10-21T06:43:32.291Z,20.57
2018-10-21T06:44:32.167Z,20.55
2018-10-21T06:45:33.175Z,20.54
2018-10-21T06:46:32.392Z,20.55
2018-10-21T06:47:32.428Z,20.51
2018-10-21T06:48:33.554Z,20.53
2018-10-21T06:49:32.408Z,20.54
2018-10-21T06:50:32.620Z,20.53
2018-10-21T06:51:32.777Z,20.54
2018-10-21T06:52:32.478Z,20.54
2018-10-21T06:53:32.387Z,20.54
2018-10-21T06:54:32.647Z,20.53
2018-10-21T06:55:32.453Z,20.51
2018-10-21T06:56:34.128Z,20.53
2018-10-21T06:57:33.817Z,20.53
2018-10-21T06:58:32.633Z,20.51
2018-10-21T06:59:32.523Z,20.51
2018-10-21T07:00:32.188Z,20.53
2018-10-21T07:01:32.439Z,20.5
2018-10-21T07:02:32.319Z,20.5
2018-10-21T07:03:32.213Z,20.48
2018-10-21T07:04:33.157Z,20.47
2018-10-21T07:05:32.318Z,20.47
2018-10-21T07:06:32.187Z,20.48
2018-10-21T07:07:32.316Z,20.47
2018-10-21T07:08:32.339Z,20.47
2018-10-21T07:09:32.365Z,20.48
2018-10-21T07:10:32.216Z,20.46
2018-10-21T07:11:32.146Z,20.47
2018-10-21T07:12:32.312Z,20.47
2018-10-21T07:13:32.252Z,20.47
2018-10-21T07:14:32.440Z,20.48
2018-10-21T07:15:33.142Z,20.47
2018-10-21T07:16:34.265Z,20.48
2018-10-21T07:17:32.406Z,20.46
2018-10-21T07:18:32.461Z,20.46
2018-10-21T07:19:32.445Z,20.46
2018-10-21T07:20:32.244Z,20.43
2018-10-21T07:21:32.397Z,20.43
2018-10-21T07:22:32.374Z,20.47
2018-10-21T07:23:32.227Z,20.44
2018-10-21T07:24:32.378Z,20.44
2018-10-21T07:25:32.485Z,20.43
2018-10-21T07:26:32.290Z,20.43
2018-10-21T07:27:32.239Z,20.43
2018-10-21T07:28:33.642Z,20.42
2018-10-21T07:29:32.508Z,20.4
2018-10-21T07:30:32.531Z,20.4
2018-10-21T07:31:32.382Z,20.39
2018-10-21T07:32:32.514Z,20.42
2018-10-21T07:33:32.588Z,20.4
2018-10-21T07:34:32.488Z,20.39
2018-10-21T07:35:32.297Z,20.39
2018-10-21T07:36:32.950Z,20.4
2018-10-21T07:37:32.220Z,20.4
2018-10-21T07:38:32.355Z,20.36
2018-10-21T07:39:32.400Z,20.39
2018-10-21T07:40:32.505Z,20.35
2018-10-21T07:41:32.221Z,20.36
2018-10-21T07:42:32.325Z,20.36
2018-10-21T07:43:32.393Z,20.35
2018-10-21T07:44:32.260Z,20.33
2018-10-21T07:45:32.281Z,20.35
2018-10-21T07:46:32.929Z,20.26
2018-10-21T07:47:32.338Z,20.16
2018-10-21T07:48:32.278Z,20.08
2018-10-21T07:49:32.246Z,19.93
2018-10-21T07:50:32.495Z,19.91
2018-10-21T07:51:32.328Z,19.78
2018-10-21T07:52:32.243Z,19.77
2018-10-21T07:53:32.364Z,19.77
2018-10-21T07:54:32.292Z,19.78
2018-10-21T07:55:33.059Z,19.81
2018-10-21T07:56:32.220Z,19.82
2018-10-21T07:57:32.487Z,19.82
2018-10-21T07:58:32.258Z,19.88
2018-10-21T07:59:32.488Z,19.92
2018-10-21T08:00:32.536Z,19.92
2018-10-21T08:01:33.579Z,19.93
2018-10-21T08:02:32.380Z,19.95
2018-10-21T08:03:33.130Z,19.96
2018-10-21T08:04:32.354Z,19.99
2018-10-21T08:05:32.279Z,20.04
2018-10-21T08:06:32.389Z,20.02
2018-10-21T08:07:32.393Z,20.05
2018-10-21T08:08:32.906Z,20.05
2018-10-21T08:09:32.330Z,20.05
2018-10-21T08:10:32.478Z,20.09
2018-10-21T08:11:32.340Z,20.09
2018-10-21T08:12:32.139Z,20.13
2018-10-21T08:13:32.238Z,20.13
2018-10-21T08:14:32.561Z,20.13
2018-10-21T08:15:32.564Z,20.15
2018-10-21T08:16:32.252Z,20.15
2018-10-21T08:17:32.263Z,20.15
2018-10-21T08:18:32.452Z,20.16
2018-10-21T08:19:32.237Z,20.19
2018-10-21T08:20:32.405Z,20.16
2018-10-21T08:21:32.438Z,20.2
2018-10-21T08:22:32.224Z,20.22
2018-10-21T08:23:32.202Z,20.2
2018-10-21T08:24:32.255Z,20.19
2018-10-21T08:25:32.266Z,20.2
2018-10-21T08:26:32.468Z,20.2
2018-10-21T08:27:32.153Z,20.22
2018-10-21T08:28:32.303Z,20.23
2018-10-21T08:29:32.413Z,20.22
2018-10-21T08:30:32.294Z,20.23
2018-10-21T08:31:32.392Z,20.25
2018-10-21T08:32:32.864Z,20.23
2018-10-21T08:33:32.152Z,20.26
2018-10-21T08:34:32.291Z,20.25
2018-10-21T08:35:32.089Z,20.25
2018-10-21T08:36:32.544Z,20.26
2018-10-21T08:37:32.116Z,20.25
2018-10-21T08:38:32.317Z,20.26
2018-10-21T08:39:32.654Z,20.26
2018-10-21T08:40:32.286Z,20.3
2018-10-21T08:41:32.720Z,20.29
2018-10-21T08:42:32.604Z,20.27
2018-10-21T08:43:32.372Z,20.27
2018-10-21T08:44:32.587Z,20.27
2018-10-21T08:45:32.323Z,20.26
2018-10-21T08:46:33.082Z,20.23
2018-10-21T08:47:32.535Z,20.22
2018-10-21T08:48:32.202Z,20.23
2018-10-21T08:49:32.543Z,20.22
2018-10-21T08:50:32.911Z,20.23
2018-10-21T08:51:32.230Z,20.22
2018-10-21T08:52:32.307Z,20.23
2018-10-21T08:53:32.374Z,20.22
2018-10-21T08:54:32.237Z,20.22
2018-10-21T08:55:32.285Z,20.22
2018-10-21T08:56:32.367Z,20.22
2018-10-21T08:57:32.154Z,20.19
2018-10-21T08:58:32.583Z,20.18
2018-10-21T08:59:32.386Z,20.19
2018-10-21T09:00:32.218Z,20.19
2018-10-21T09:01:32.194Z,20.2
2018-10-21T09:02:32.706Z,20.18
2018-10-21T09:03:32.305Z,20.18
2018-10-21T09:04:32.428Z,20.19
2018-10-21T09:05:32.275Z,20.19
2018-10-21T09:06:32.135Z,20.2
2018-10-21T09:07:32.490Z,20.18
2018-10-21T09:08:32.404Z,20.13
2018-10-21T09:09:32.485Z,20.18
2018-10-21T09:10:34.104Z,20.19
2018-10-21T09:11:32.405Z,20.18
2018-10-21T09:12:32.566Z,20.18
2018-10-21T09:13:32.425Z,20.15
2018-10-21T09:14:32.373Z,20.19
2018-10-21T09:15:33.635Z,20.19
2018-10-21T09:16:33.555Z,20.2
2018-10-21T09:17:32.478Z,20.19
2018-10-21T09:18:32.308Z,20.18
2018-10-21T09:19:32.161Z,20.2
2018-10-21T09:20:32.317Z,20.18
2018-10-21T09:21:32.257Z,20.19
2018-10-21T09:22:32.337Z,20.16
2018-10-21T09:23:32.538Z,20.16
2018-10-21T09:24:32.224Z,20.16
2018-10-21T09:25:32.849Z,20.15
2018-10-21T09:26:32.213Z,20.15
2018-10-21T09:27:32.278Z,20.12
2018-10-21T09:28:32.163Z,20.12
2018-10-21T09:29:32.344Z,20.11
2018-10-21T09:30:32.214Z,20.08
2018-10-21T09:31:32.335Z,20.07
2018-10-21T09:32:32.427Z,20.05
2018-10-21T09:33:32.340Z,20.09
2018-10-21T09:34:32.608Z,20.08
2018-10-21T09:35:32.155Z,20.08
2018-10-21T09:36:32.301Z,20.09
2018-10-21T09:37:32.260Z,20.08
2018-10-21T09:38:32.814Z,20.09
2018-10-21T09:39:32.265Z,20.07
2018-10-21T09:40:32.367Z,20.08
2018-10-21T09:41:32.335Z,20.09
2018-10-21T09:42:32.184Z,20.08
2018-10-21T09:43:32.452Z,20.09
2018-10-21T09:44:32.343Z,20.09
2018-10-21T09:45:32.520Z,20.11
2018-10-21T09:46:32.489Z,20.09
2018-10-21T09:47:32.367Z,20.05
2018-10-21T09:48:32.415Z,20.08
2018-10-21T09:49:32.678Z,20.11
2018-10-21T09:50:32.327Z,20.13
2018-10-21T09:51:32.469Z,20.11
2018-10-21T09:52:32.238Z,20.09
2018-10-21T09:53:32.302Z,20.12
2018-10-21T09:54:32.525Z,20.11
2018-10-21T09:55:32.331Z,20.12
2018-10-21T09:56:32.348Z,20.12
2018-10-21T09:57:32.555Z,20.09
2018-10-21T09:58:32.909Z,20.11
2018-10-21T09:59:32.309Z,20.11
2018-10-21T10:00:32.129Z,20.13
2018-10-21T10:01:32.595Z,20.11
2018-10-21T10:02:32.502Z,20.12
2018-10-21T10:03:32.262Z,20.13
2018-10-21T10:04:32.187Z,20.15
2018-10-21T10:05:32.257Z,20.11
2018-10-21T10:06:32.327Z,20.15
2018-10-21T10:07:32.185Z,20.13
2018-10-21T10:08:32.341Z,20.11
2018-10-21T10:09:32.170Z,20.16
2018-10-21T10:10:32.335Z,20.15
2018-10-21T10:11:32.390Z,20.15
2018-10-21T10:12:32.312Z,20.15
2018-10-21T10:13:32.261Z,20.18
2018-10-21T10:14:32.172Z,20.18
2018-10-21T10:15:32.556Z,20.19
2018-10-21T10:16:32.501Z,20.15
2018-10-21T10:17:32.726Z,20.16
2018-10-21T10:18:32.406Z,20.16
2018-10-21T10:20:02.330Z,20.25
2018-10-21T10:21:02.361Z,20.23
2018-10-21T10:22:02.653Z,20.22
2018-10-21T10:23:02.463Z,20.22
2018-10-21T10:24:03.016Z,20.23
2018-10-21T10:25:02.978Z,20.23
2018-10-21T10:26:02.328Z,20.2
2018-10-21T10:27:02.115Z,20.23
2018-10-21T10:28:03.209Z,20.23
2018-10-21T10:29:02.287Z,20.26
2018-10-21T10:30:03.570Z,20.25
2018-10-21T10:31:24.089Z,20.25
2018-10-21T10:32:24.230Z,20.26
2018-10-21T10:33:24.398Z,20.26
2018-10-21T10:34:24.302Z,20.27
2018-10-21T10:35:24.219Z,20.27
2018-10-21T10:36:24.276Z,20.29
2018-10-21T10:37:24.348Z,20.3
2018-10-21T10:38:24.208Z,20.29
2018-10-21T10:39:24.151Z,20.3
2018-10-21T10:40:24.139Z,20.32
2018-10-21T10:41:24.578Z,20.29
2018-10-21T10:42:24.483Z,20.35
2018-10-21T10:43:43.742Z,20.37
2018-10-21T10:44:43.964Z,20.39
2018-10-21T10:45:43.796Z,20.4
2018-10-21T10:47:13.749Z,20.42
2018-10-21T10:48:13.560Z,20.42
2018-10-21T10:49:14.859Z,20.43
2018-10-21T10:50:13.913Z,20.4
2018-10-21T10:52:07.776Z,20.46
2018-10-21T10:53:37.824Z,20.43
2018-10-21T10:58:26.504Z,20.47
2018-10-21T10:59:09.757Z,20.54
2018-10-21T11:00:11.100Z,20.55
2018-10-21T11:01:16.623Z,20.6
2018-10-21T11:02:15.336Z,20.61
2018-10-21T11:03:15.388Z,20.61
2018-10-21T11:04:16.274Z,20.61
2018-10-21T11:05:15.229Z,20.6
2018-10-21T11:06:15.985Z,20.6
2018-10-21T11:07:16.947Z,20.6
2018-10-21T11:08:15.496Z,20.61
2018-10-21T11:09:15.841Z,20.63
2018-10-21T11:10:16.861Z,20.59
2018-10-21T11:11:15.503Z,20.55
2018-10-21T11:12:15.264Z,20.59
2018-10-21T11:13:16.811Z,20.57
2018-10-21T11:14:15.450Z,20.57
2018-10-21T11:15:15.502Z,20.59
2018-10-21T11:16:16.808Z,20.59
2018-10-21T11:17:15.381Z,20.55
2018-10-21T11:18:15.206Z,20.51
2018-10-21T11:19:16.588Z,20.51
2018-10-21T11:21:31.150Z,20.55
2018-10-21T11:22:31.338Z,20.57
2018-10-21T11:24:00.434Z,20.59
2018-10-21T11:25:00.777Z,20.57
2018-10-21T11:26:00.656Z,20.57
2018-10-21T11:27:00.665Z,20.55
2018-10-21T11:27:44.965Z,20.57
2018-10-21T11:28:29.122Z,20.54
2018-10-21T11:29:28.840Z,20.6
2018-10-21T11:30:28.933Z,20.61
2018-10-21T11:31:29.112Z,20.61
2018-10-21T11:32:29.078Z,20.61
2018-10-21T11:33:29.091Z,20.66
2018-10-21T11:34:28.930Z,20.66
2018-10-21T11:35:28.879Z,20.64
2018-10-21T11:36:29.510Z,20.64
2018-10-21T11:37:31.019Z,20.66
2018-10-21T11:38:29.328Z,20.64
2018-10-21T11:39:29.117Z,20.64
2018-10-21T11:40:28.961Z,20.66
2018-10-21T11:41:28.997Z,20.63
2018-10-21T11:42:29.277Z,20.61
2018-10-21T11:43:29.141Z,20.61
2018-10-21T11:44:29.084Z,20.57
2018-10-21T11:45:29.529Z,20.59
2018-10-21T11:46:30.220Z,20.63
2018-10-21T11:47:29.502Z,20.61
2018-10-21T11:48:29.138Z,20.6
2018-10-21T11:49:29.138Z,20.63
2018-10-21T11:50:29.008Z,20.57
2018-10-21T11:51:28.930Z,20.55
2018-10-21T11:52:29.707Z,20.61
2018-10-21T11:53:29.395Z,20.55
2018-10-21T11:54:29.477Z,20.53
2018-10-21T11:55:29.039Z,20.57
2018-10-21T11:56:29.384Z,20.54
2018-10-21T11:57:29.079Z,20.51
2018-10-21T11:58:29.541Z,20.55
2018-10-21T11:59:28.897Z,20.53
2018-10-21T12:00:29.028Z,20.51
2018-10-21T12:01:29.098Z,20.54
2018-10-21T12:02:29.021Z,20.53
2018-10-21T12:03:29.413Z,20.51
2018-10-21T12:04:29.232Z,20.53
2018-10-21T12:05:29.327Z,20.46
2018-10-21T12:06:30.335Z,20.46
2018-10-21T12:07:28.958Z,20.51
2018-10-21T12:08:29.050Z,20.5
2018-10-21T12:09:29.220Z,20.48
2018-10-21T12:10:29.527Z,20.51
2018-10-21T12:11:29.273Z,20.53
2018-10-21T12:12:29.133Z,20.51
2018-10-21T12:13:29.147Z,20.55
2018-10-21T12:14:28.984Z,20.54
2018-10-21T12:15:29.098Z,20.5
2018-10-21T12:16:29.329Z,20.5
2018-10-21T12:17:29.050Z,20.5
2018-10-21T12:18:29.153Z,20.43
2018-10-21T12:19:29.098Z,20.46
2018-10-21T12:20:29.337Z,20.47
2018-10-21T12:21:29.376Z,20.44
2018-10-21T12:22:29.569Z,20.47
2018-10-21T12:23:30.277Z,20.46
2018-10-21T12:24:29.681Z,20.46
2018-10-21T12:25:29.952Z,20.5
2018-10-21T12:26:29.231Z,20.44
2018-10-21T12:27:28.995Z,20.43
2018-10-21T12:28:29.112Z,20.43
2018-10-21T12:29:29.184Z,20.42
2018-10-21T12:30:28.993Z,20.39
2018-10-21T12:31:29.322Z,20.42
2018-10-21T12:32:29.548Z,20.44
2018-10-21T12:33:29.003Z,20.33
2018-10-21T12:34:29.186Z,20.39
2018-10-21T12:35:29.202Z,20.42
2018-10-21T12:36:29.104Z,20.39
2018-10-21T12:37:29.016Z,20.46
2018-10-21T12:38:29.178Z,20.46
2018-10-21T12:39:29.060Z,20.5
2018-10-21T12:40:29.396Z,20.54
2018-10-21T12:41:29.169Z,20.5
2018-10-21T12:42:28.985Z,20.44
2018-10-21T12:43:29.051Z,20.48
2018-10-21T12:44:29.123Z,20.48
2018-10-21T12:45:30.163Z,20.51
2018-10-21T12:46:29.294Z,20.54
2018-10-21T12:47:29.210Z,20.48
2018-10-21T12:48:29.408Z,20.48
2018-10-21T12:49:29.041Z,20.51
2018-10-21T12:50:29.142Z,20.5
2018-10-21T12:51:29.057Z,20.44
2018-10-21T12:52:29.355Z,20.47
2018-10-21T12:53:29.137Z,20.47
2018-10-21T12:54:29.694Z,20.47
2018-10-21T12:55:29.470Z,20.48
2018-10-21T12:56:29.289Z,20.44
2018-10-21T12:57:29.064Z,20.44
2018-10-21T12:58:29.004Z,20.47
2018-10-21T12:59:29.105Z,20.44
2018-10-21T13:00:29.178Z,20.47
2018-10-21T13:01:28.981Z,20.47
2018-10-21T13:02:28.987Z,20.46
2018-10-21T13:03:29.158Z,20.43